Certified Water Technologist #63

Certified Water Technologist #63
Vern's Stories fredhorn37@gmail.com

Temp is 104 at 4:26 pm

Temperature here in Madera at the moment is 104°F.  On my patio my thermometer says 104. Not like back in Texas at Ex's place, where it is supposed to feel like 109 today. Here it is a dry heat.  Stay in the shade, drink lots of liquid.  

For information only: do not use for flight planning or navigation.
Latest weather
Observation timeSaturday, July 11, 2020 3:53 PM PDT
Local timeSaturday, July 11, 2020 4:24 PM PDT
Flight conditionsVisual Meteorological Conditions
Winds
Wind directionWest-Northwest (290°)
Wind speed8 mph
Visibility10 mi.
Sky condition
Ceilingunlimited
Cloud layerfew clouds 11,000 ft.
Temperature104°F
Dewpoint46°F
Altimeter29.92 in.Hg
Derived measurements
Relative humidity14%
Heat index104°F
Density altitude3218 ft.
Sea-level pressure29.91 in.Hg
Remarks
Fully automated report.
Automated weather observing station with precipitation discriminator.
METARKMAE 112253Z AUTO 29007KT 10SM FEW110 40/08 A2992 RMK AO2 SLP129 T04000078

2 comments:

  1. It's coming up on the days here in Florida with that kind of heat with 80-90% humidity. Last year, we frequently hit heat indecies of 112-115 degrees.

    ReplyDelete
    Replies
    1. I spent 3 months in Orlando in 1970 while in bootcamp. When the temps hit 100 they raised a black flag, and we all stayed inside.

      Delete